Observations for RONCHI LEGIONARI AB, Italy (LIPQ)

LIPQ 100220Z AUTO 29003KT 7000 BKN210/// 02/01 Q1010
LIPQ 100150Z AUTO 04005KT 6000 BKN210/// 03/03 Q1009
LIPQ 100150Z AUTO 04005KT 6000 BKN210 03/03 Q1009
LIPQ 100120Z AUTO 02004KT 4300 BR BKN200/// 03/02 Q1009 
LIPQ 100120Z AUTO 02004KT 4300 BR BKN200 03/02 Q1009
LIPQ 100050Z AUTO 01004KT 5000 BR BKN210/// 03/03 Q1009 
LIPQ 100050Z AUTO 01004KT 5000 BR BKN210 03/03 Q1009
LIPQ 100020Z AUTO 34003KT 5000 BR BKN210/// 03/02 Q1009 
LIPQ 092350Z AUTO 08003KT 040V100 5000 BR BKN240/// 02/02 Q1008 
LIPQ 092350Z AUTO 08003KT 040V100 5000 BR BKN240 02/02 Q1008
LIPQ 092320Z AUTO VRB02KT 5000 BR SCT210/// 02/02 Q1008 
LIPQ 092320Z AUTO VRB02KT 5000 BR SCT210 02/02 Q1008
LIPQ 092250Z VRB02KT 4000 BR NSC 03/02 Q1008
LIPQ 092220Z 09003KT CAVOK 03/02 Q1008  
LIPQ 092150Z 04003KT CAVOK 03/02 Q1008  
LIPQ 092120Z 10004KT CAVOK 04/03 Q1007  
LIPQ 092050Z 10005KT CAVOK 05/03 Q1007  
LIPQ 092020Z 13004KT CAVOK 05/03 Q1007  
LIPQ 091950Z 11004KT CAVOK 05/03 Q1007  
LIPQ 091920Z VRB02KT CAVOK 05/04 Q1007  
LIPQ 091850Z VRB02KT CAVOK 05/04 Q1006  
LIPQ 091820Z VRB01KT CAVOK 07/05 Q1006  
LIPQ 091750Z VRB01KT CAVOK 06/04 Q1006  
LIPQ 091720Z 35004KT CAVOK 08/05 Q1006  
LIPQ 091650Z 31003KT CAVOK 08/06 Q1005  
LIPQ 091620Z 30004KT CAVOK 10/06 Q1005  
LIPQ 091550Z 31004KT CAVOK 11/06 Q1005  
LIPQ 091520Z 29005KT CAVOK 11/06 Q1005  
LIPQ 091450Z 30004KT CAVOK 13/07 Q1005  
LIPQ 091420Z 26002KT CAVOK 14/07 Q1005  
LIPQ 091350Z 09003KT 030V120 CAVOK 14/07 Q1004  
LIPQ 091320Z 10006KT 070V130 CAVOK 14/07 Q1004  
LIPQ 091250Z 03006KT 360V060 9999 FEW080 13/06 Q1005
LIPQ 091220Z 01007KT 9999 BKN100 13/07 Q1005
LIPQ 091150Z 01006KT 9999 FEW090 13/07 Q1005
LIPQ 091120Z 02006KT CAVOK 12/06 Q1005  
LIPQ 091050Z 01006KT CAVOK 12/06 Q1005  
LIPQ 091020Z 06005KT 360V110 CAVOK 12/06 Q1006  
LIPQ 090950Z 09006KT CAVOK 12/06 Q1006  
LIPQ 090920Z VRB02KT CAVOK 11/07 Q1007  
LIPQ 090850Z 01003KT 330V040 CAVOK 09/05 Q1007  
LIPQ 090820Z 02003KT 9999 FEW030 07/05 Q1008
LIPQ 090750Z VRB02KT 9999 SCT025 06/04 Q1008
LIPQ 090720Z VRB02KT 9999 SCT025 04/03 Q1008
LIPQ 090650Z 04003KT 9999 BKN025 02/02 Q1008
LIPQ 090620Z 01003KT 9999 BKN025 02/01 Q1009
LIPQ 090550Z VRB02KT 9999 FEW030 02/01 Q1009
LIPQ 090520Z VRB02KT 9999 FEW030 02/02 Q1009
LIPQ 090450Z AUTO 05004KT 9999 NCD 03/01 Q1010  
LIPQ 090420Z AUTO 06004KT 9999 NCD 02/01 Q1010  
LIPQ 090350Z AUTO 10007KT 9999 NCD 01/00 Q1011  
LIPQ 090320Z AUTO 10007KT 9999 NCD 02/01 Q1012  
LIPQ 090250Z AUTO 10006KT 9999 NCD 01/M00 Q1012 
LIPQ 090220Z AUTO 04002KT 9999 NCD 01/01 Q1013  
LIPQ 090150Z AUTO 01004KT 9999 NCD 02/01 Q1013